Terminal Aerodrome Forecast
Issued by NWS Goodland, KS

Home | Current Version | Previous Version | Text Only | Print | Product List | Glossary On
Versions: 1 2 3 4 5 6 7 8 9 10 11 12 13 14 15 16 17 18 19
495
FTUS43 KGLD 241430 AAA
TAFGLD
TAF AMD
KGLD 241430Z 2415/2512 36007KT P6SM BKN100
     FM241700 04011G15KT P6SM BKN100
     FM250800 02006KT P6SM SCT025 BKN080=

USA.gov is the U.S. government's official web portal to all federal, state and local government web resources and services.